MiSS Rachel — WDC2593 — position and weather

sailwx.info

Track history (hours):
 
Tides and Currents Weather Stations Pressure Air Temp Water Temp Dewpoint Dewpoint Depression Visibility Wind Speed Wind Dir Waves Ship Positions

MiSS Rachel

Owner: Kirby Inland Marine LP, Houston, TX. More information available from US FCC via Universal Licensing System and Coast Guard Vessel Documentation Center.

Last reported at 2018-Jan-24 12:01 UTC. Time now 2018-Feb-22 23:00 UTC.
Position N 28°11' W 096°51'.
Warning: this ship's position is 29 days out of date.

Length 97 m.

Type: . MMSI: 366995370.

Date/timePositionNaut miles runAvg speedWind from/ knotsBaromVisibWave heightAir tempDewpointWater temp
2018-Jan-24 12:01N 28°11' W 096°51'0 6.5
2018-Jan-24 11:58N 28°11' W 096°51'3 6.0
2018-Jan-24 11:29N 28°09' W 096°53'0 0.1
2018-Jan-24 11:00N 28°09' W 096°53'2 3.1
2018-Jan-24 10:30N 28°08' W 096°55'3 5.1
2018-Jan-24 10:00N 28°06' W 096°56'3 6.5
2018-Jan-24 09:29N 28°03' W 096°59'3 6.6
2018-Jan-24 09:00N 28°01' W 097°01'3 6.5
2018-Jan-24 08:30N 27°58' W 097°03'3 6.4
2018-Jan-24 08:00N 27°55' W 097°03'3 6.0
2018-Jan-24 07:30N 27°52' W 097°03'3 5.6
2018-Jan-24 06:59N 27°50' W 097°05'3 7.1
2018-Jan-24 06:30N 27°50' W 097°09'3 6.7
2018-Jan-24 05:59N 27°49' W 097°13'4 6.9
2018-Jan-24 05:27N 27°49' W 097°17'4 7.0
2018-Jan-24 04:57N 27°49' W 097°21'3 7.1
2018-Jan-24 04:30N 27°49' W 097°25'4 3.2
2018-Jan-24 03:21N 27°49' W 097°29'2 0.5
2018-Jan-23 22:55N 27°49' W 097°26'1 0.3
2018-Jan-23 18:58N 27°49' W 097°25'5 6.6
2018-Jan-23 18:08N 27°49' W 097°19'2 6.0
2018-Jan-23 17:53N 27°48' W 097°17'3 6.4
2018-Jan-23 17:27N 27°46' W 097°16'3 6.4
2018-Jan-23 16:59N 27°43' W 097°14'2 4.3
2018-Jan-23 16:27N 27°41' W 097°14'3 6.3
2018-Jan-23 16:00N 27°38' W 097°14'3 6.2
2018-Jan-23 15:30N 27°35' W 097°16'3 5.8
2018-Jan-23 14:59N 27°33' W 097°17'3 5.8
2018-Jan-23 14:28N 27°30' W 097°19'3 5.9
2018-Jan-23 14:00N 27°27' W 097°20'3 5.8
2018-Jan-23 13:27N 27°25' W 097°21'3 5.8
2018-Jan-23 12:59N 27°22' W 097°23'3 5.8
2018-Jan-23 12:30N 27°19' W 097°24'  
Track history (hours):
 
Tides and Currents Weather Stations Pressure Air Temp Water Temp Dewpoint Dewpoint Depression Visibility Wind Speed Wind Dir Waves Ship Positions

MiSS Rachel

Owner: Kirby Inland Marine LP, Houston, TX. More information available from US FCC via Universal Licensing System and Coast Guard Vessel Documentation Center.

Last reported at 2018-Jan-24 12:01 UTC. Time now 2018-Feb-22 23:00 UTC.
Position N 28°11' W 096°51'.
Warning: this ship's position is 29 days out of date.

Length 97 m.

Type: . MMSI: 366995370.

Date/timePositionNaut miles runAvg speedWind from/ knotsBaromVisibWave heightAir tempDewpointWater temp
2018-Jan-24 12:01N 28°11' W 096°51'0 6.5
2018-Jan-24 11:58N 28°11' W 096°51'3 6.0
2018-Jan-24 11:29N 28°09' W 096°53'0 0.1
2018-Jan-24 11:00N 28°09' W 096°53'2 3.1
2018-Jan-24 10:30N 28°08' W 096°55'3 5.1
2018-Jan-24 10:00N 28°06' W 096°56'3 6.5
2018-Jan-24 09:29N 28°03' W 096°59'3 6.6
2018-Jan-24 09:00N 28°01' W 097°01'3 6.5
2018-Jan-24 08:30N 27°58' W 097°03'3 6.4
2018-Jan-24 08:00N 27°55' W 097°03'3 6.0
2018-Jan-24 07:30N 27°52' W 097°03'3 5.6
2018-Jan-24 06:59N 27°50' W 097°05'3 7.1
2018-Jan-24 06:30N 27°50' W 097°09'3 6.7
2018-Jan-24 05:59N 27°49' W 097°13'4 6.9
2018-Jan-24 05:27N 27°49' W 097°17'4 7.0
2018-Jan-24 04:57N 27°49' W 097°21'3 7.1
2018-Jan-24 04:30N 27°49' W 097°25'4 3.2
2018-Jan-24 03:21N 27°49' W 097°29'2 0.5
2018-Jan-23 22:55N 27°49' W 097°26'1 0.3
2018-Jan-23 18:58N 27°49' W 097°25'5 6.6
2018-Jan-23 18:08N 27°49' W 097°19'2 6.0
2018-Jan-23 17:53N 27°48' W 097°17'3 6.4
2018-Jan-23 17:27N 27°46' W 097°16'3 6.4
2018-Jan-23 16:59N 27°43' W 097°14'2 4.3
2018-Jan-23 16:27N 27°41' W 097°14'3 6.3
2018-Jan-23 16:00N 27°38' W 097°14'3 6.2
2018-Jan-23 15:30N 27°35' W 097°16'3 5.8
2018-Jan-23 14:59N 27°33' W 097°17'3 5.8
2018-Jan-23 14:28N 27°30' W 097°19'3 5.9
2018-Jan-23 14:00N 27°27' W 097°20'3 5.8
2018-Jan-23 13:27N 27°25' W 097°21'3 5.8
2018-Jan-23 12:59N 27°22' W 097°23'3 5.8
2018-Jan-23 12:30N 27°19' W 097°24'  

Dump ship's entire track history